sensor_id;sensor_type;location;lat;lon;timestamp;temperature;humidity
35445;DHT22;21562;49.476;6.086;2024-01-07T00:00:03;6.20;99.90
35445;DHT22;21562;49.476;6.086;2024-01-07T00:02:29;6.30;99.90
35445;DHT22;21562;49.476;6.086;2024-01-07T00:04:56;6.30;99.90
35445;DHT22;21562;49.476;6.086;2024-01-07T00:07:22;6.20;99.90
35445;DHT22;21562;49.476;6.086;2024-01-07T00:09:47;6.00;99.90
35445;DHT22;21562;49.476;6.086;2024-01-07T00:12:13;6.00;99.90
35445;DHT22;21562;49.476;6.086;2024-01-07T00:14:39;6.10;99.90
35445;DHT22;21562;49.476;6.086;2024-01-07T00:17:04;6.10;99.90
35445;DHT22;21562;49.476;6.086;2024-01-07T00:19:30;6.20;99.90
35445;DHT22;21562;49.476;6.086;2024-01-07T00:22:01;6.30;99.90
35445;DHT22;21562;49.476;6.086;2024-01-07T00:24:26;6.30;99.90
35445;DHT22;21562;49.476;6.086;2024-01-07T00:26:54;6.20;99.90
35445;DHT22;21562;49.476;6.086;2024-01-07T00:29:20;6.10;99.90
35445;DHT22;21562;49.476;6.086;2024-01-07T00:31:46;5.90;99.90
35445;DHT22;21562;49.476;6.086;2024-01-07T00:34:12;6.00;99.90
35445;DHT22;21562;49.476;6.086;2024-01-07T00:36:37;6.10;99.90
35445;DHT22;21562;49.476;6.086;2024-01-07T00:39:04;6.10;99.90
35445;DHT22;21562;49.476;6.086;2024-01-07T00:41:30;6.20;99.90
35445;DHT22;21562;49.476;6.086;2024-01-07T00:43:58;6.10;99.90
35445;DHT22;21562;49.476;6.086;2024-01-07T00:46:24;6.20;99.90
35445;DHT22;21562;49.476;6.086;2024-01-07T00:48:49;6.20;99.90
35445;DHT22;21562;49.476;6.086;2024-01-07T00:51:15;6.10;99.90
35445;DHT22;21562;49.476;6.086;2024-01-07T00:53:40;6.30;99.90
35445;DHT22;21562;49.476;6.086;2024-01-07T00:56:07;6.30;99.90
35445;DHT22;21562;49.476;6.086;2024-01-07T00:58:33;6.60;99.90
35445;DHT22;21562;49.476;6.086;2024-01-07T01:00:58;6.50;99.90
35445;DHT22;21562;49.476;6.086;2024-01-07T01:03:25;6.40;99.90
35445;DHT22;21562;49.476;6.086;2024-01-07T01:05:52;6.50;99.90
35445;DHT22;21562;49.476;6.086;2024-01-07T01:08:17;6.40;99.90
35445;DHT22;21562;49.476;6.086;2024-01-07T01:10:43;6.30;99.90
35445;DHT22;21562;49.476;6.086;2024-01-07T01:13:09;6.50;99.90
35445;DHT22;21562;49.476;6.086;2024-01-07T01:15:34;6.60;99.90
35445;DHT22;21562;49.476;6.086;2024-01-07T01:18:00;6.70;99.90
35445;DHT22;21562;49.476;6.086;2024-01-07T01:20:26;6.60;99.90
35445;DHT22;21562;49.476;6.086;2024-01-07T01:22:52;6.60;99.90
35445;DHT22;21562;49.476;6.086;2024-01-07T01:25:17;6.60;99.90
35445;DHT22;21562;49.476;6.086;2024-01-07T01:27:43;6.50;99.90
35445;DHT22;21562;49.476;6.086;2024-01-07T01:30:10;6.50;99.90
35445;DHT22;21562;49.476;6.086;2024-01-07T01:32:36;6.70;99.90
35445;DHT22;21562;49.476;6.086;2024-01-07T01:35:02;6.90;99.90
35445;DHT22;21562;49.476;6.086;2024-01-07T01:37:27;6.90;98.00
35445;DHT22;21562;49.476;6.086;2024-01-07T01:39:53;6.60;99.90
35445;DHT22;21562;49.476;6.086;2024-01-07T01:42:19;6.50;99.90
35445;DHT22;21562;49.476;6.086;2024-01-07T01:44:46;6.50;99.90
35445;DHT22;21562;49.476;6.086;2024-01-07T01:47:12;6.50;99.90
35445;DHT22;21562;49.476;6.086;2024-01-07T01:49:37;6.40;99.90
35445;DHT22;21562;49.476;6.086;2024-01-07T01:52:04;6.50;99.90
35445;DHT22;21562;49.476;6.086;2024-01-07T01:54:30;6.50;99.90
35445;DHT22;21562;49.476;6.086;2024-01-07T01:56:56;6.60;99.90
35445;DHT22;21562;49.476;6.086;2024-01-07T01:59:22;6.50;99.90
35445;DHT22;21562;49.476;6.086;2024-01-07T02:01:48;6.40;99.90
35445;DHT22;21562;49.476;6.086;2024-01-07T02:04:15;6.40;99.90
35445;DHT22;21562;49.476;6.086;2024-01-07T02:06:41;6.40;99.90
35445;DHT22;21562;49.476;6.086;2024-01-07T02:09:07;6.40;99.90
35445;DHT22;21562;49.476;6.086;2024-01-07T02:11:32;6.40;99.90
35445;DHT22;21562;49.476;6.086;2024-01-07T02:13:58;6.40;99.90
35445;DHT22;21562;49.476;6.086;2024-01-07T02:16:24;6.50;99.90
35445;DHT22;21562;49.476;6.086;2024-01-07T02:18:50;6.50;97.70
35445;DHT22;21562;49.476;6.086;2024-01-07T02:21:15;6.50;99.90
35445;DHT22;21562;49.476;6.086;2024-01-07T02:23:41;6.50;95.50
35445;DHT22;21562;49.476;6.086;2024-01-07T02:26:07;6.30;94.00
35445;DHT22;21562;49.476;6.086;2024-01-07T02:28:33;6.20;99.90
35445;DHT22;21562;49.476;6.086;2024-01-07T02:30:59;6.10;99.90
35445;DHT22;21562;49.476;6.086;2024-01-07T02:33:25;6.10;99.90
35445;DHT22;21562;49.476;6.086;2024-01-07T02:35:50;6.10;99.90
35445;DHT22;21562;49.476;6.086;2024-01-07T02:38:16;6.20;99.90
35445;DHT22;21562;49.476;6.086;2024-01-07T02:40:42;6.40;99.90
35445;DHT22;21562;49.476;6.086;2024-01-07T02:43:08;6.40;99.90
35445;DHT22;21562;49.476;6.086;2024-01-07T02:45:34;6.50;98.30
35445;DHT22;21562;49.476;6.086;2024-01-07T02:47:59;6.50;99.90
35445;DHT22;21562;49.476;6.086;2024-01-07T02:50:25;6.50;99.90
35445;DHT22;21562;49.476;6.086;2024-01-07T02:52:51;6.60;93.60
35445;DHT22;21562;49.476;6.086;2024-01-07T02:55:17;6.60;87.00
35445;DHT22;21562;49.476;6.086;2024-01-07T02:57:43;6.40;96.30
35445;DHT22;21562;49.476;6.086;2024-01-07T03:00:08;6.40;88.50
35445;DHT22;21562;49.476;6.086;2024-01-07T03:02:34;6.50;99.90
35445;DHT22;21562;49.476;6.086;2024-01-07T03:05:00;6.30;99.20
35445;DHT22;21562;49.476;6.086;2024-01-07T03:07:26;6.40;96.70
35445;DHT22;21562;49.476;6.086;2024-01-07T03:09:51;6.40;96.30
35445;DHT22;21562;49.476;6.086;2024-01-07T03:12:17;6.20;99.90
35445;DHT22;21562;49.476;6.086;2024-01-07T03:14:43;6.20;99.90
35445;DHT22;21562;49.476;6.086;2024-01-07T03:17:10;6.10;99.90
35445;DHT22;21562;49.476;6.086;2024-01-07T03:19:37;6.30;99.90
35445;DHT22;21562;49.476;6.086;2024-01-07T03:22:03;6.20;99.90
35445;DHT22;21562;49.476;6.086;2024-01-07T03:24:29;6.50;99.90
35445;DHT22;21562;49.476;6.086;2024-01-07T03:26:55;6.30;99.90
35445;DHT22;21562;49.476;6.086;2024-01-07T03:29:20;6.40;99.90
35445;DHT22;21562;49.476;6.086;2024-01-07T03:31:46;6.40;99.70
35445;DHT22;21562;49.476;6.086;2024-01-07T03:34:12;6.30;94.40
35445;DHT22;21562;49.476;6.086;2024-01-07T03:36:37;6.30;99.90
35445;DHT22;21562;49.476;6.086;2024-01-07T03:39:03;6.40;99.90
35445;DHT22;21562;49.476;6.086;2024-01-07T03:41:29;6.60;99.90
35445;DHT22;21562;49.476;6.086;2024-01-07T03:43:55;6.60;91.30
35445;DHT22;21562;49.476;6.086;2024-01-07T03:46:22;6.70;65.80
35445;DHT22;21562;49.476;6.086;2024-01-07T03:48:47;6.40;97.80
35445;DHT22;21562;49.476;6.086;2024-01-07T03:51:13;6.40;99.90
35445;DHT22;21562;49.476;6.086;2024-01-07T03:53:39;6.40;94.40
35445;DHT22;21562;49.476;6.086;2024-01-07T03:56:05;6.20;99.90
35445;DHT22;21562;49.476;6.086;2024-01-07T03:58:31;6.30;99.90
35445;DHT22;21562;49.476;6.086;2024-01-07T04:00:57;6.50;99.90
35445;DHT22;21562;49.476;6.086;2024-01-07T04:03:22;6.60;93.80
35445;DHT22;21562;49.476;6.086;2024-01-07T04:05:48;6.30;97.30
35445;DHT22;21562;49.476;6.086;2024-01-07T04:08:13;6.30;99.90
35445;DHT22;21562;49.476;6.086;2024-01-07T04:10:41;6.30;96.70
35445;DHT22;21562;49.476;6.086;2024-01-07T04:13:07;6.20;99.90
35445;DHT22;21562;49.476;6.086;2024-01-07T04:15:33;6.30;99.90
35445;DHT22;21562;49.476;6.086;2024-01-07T04:18:03;6.40;99.90
35445;DHT22;21562;49.476;6.086;2024-01-07T04:20:29;6.30;95.20
35445;DHT22;21562;49.476;6.086;2024-01-07T07:24:47;6.00;90.80
35445;DHT22;21562;49.476;6.086;2024-01-07T07:27:13;7.30;99.90
35445;DHT22;21562;49.476;6.086;2024-01-07T07:29:38;9.90;99.90
35445;DHT22;21562;49.476;6.086;2024-01-07T07:32:04;9.00;98.80
35445;DHT22;21562;49.476;6.086;2024-01-07T07:34:30;8.20;1.00
35445;DHT22;21562;49.476;6.086;2024-01-07T07:36:56;7.80;1.00
35445;DHT22;21562;49.476;6.086;2024-01-07T07:39:21;7.30;1.00
35445;DHT22;21562;49.476;6.086;2024-01-07T07:41:47;6.90;1.00
35445;DHT22;21562;49.476;6.086;2024-01-07T07:44:13;6.80;1.00
35445;DHT22;21562;49.476;6.086;2024-01-07T07:46:39;6.80;1.00
35445;DHT22;21562;49.476;6.086;2024-01-07T07:49:05;6.80;1.00
35445;DHT22;21562;49.476;6.086;2024-01-07T07:51:30;6.60;1.00
35445;DHT22;21562;49.476;6.086;2024-01-07T07:53:56;6.50;4.90
35445;DHT22;21562;49.476;6.086;2024-01-07T07:56:22;6.50;14.00
35445;DHT22;21562;49.476;6.086;2024-01-07T07:58:48;6.40;11.20
35445;DHT22;21562;49.476;6.086;2024-01-07T08:01:14;6.40;23.50
35445;DHT22;21562;49.476;6.086;2024-01-07T08:03:39;6.60;17.10
35445;DHT22;21562;49.476;6.086;2024-01-07T08:06:05;6.50;1.00
35445;DHT22;21562;49.476;6.086;2024-01-07T08:08:31;6.60;1.00
35445;DHT22;21562;49.476;6.086;2024-01-07T08:10:57;6.60;1.00
35445;DHT22;21562;49.476;6.086;2024-01-07T08:13:23;6.40;7.20
35445;DHT22;21562;49.476;6.086;2024-01-07T08:15:49;6.50;6.30
35445;DHT22;21562;49.476;6.086;2024-01-07T08:18:14;6.40;29.10
35445;DHT22;21562;49.476;6.086;2024-01-07T08:20:40;6.40;4.50
35445;DHT22;21562;49.476;6.086;2024-01-07T08:23:05;6.50;1.00
35445;DHT22;21562;49.476;6.086;2024-01-07T08:25:31;6.40;12.70
35445;DHT22;21562;49.476;6.086;2024-01-07T08:27:57;6.20;22.80
35445;DHT22;21562;49.476;6.086;2024-01-07T08:30:23;6.30;32.60
35445;DHT22;21562;49.476;6.086;2024-01-07T08:32:49;6.50;24.20
35445;DHT22;21562;49.476;6.086;2024-01-07T08:35:15;6.50;15.80
35445;DHT22;21562;49.476;6.086;2024-01-07T08:37:40;6.50;28.90
35445;DHT22;21562;49.476;6.086;2024-01-07T08:40:06;6.60;1.70
35445;DHT22;21562;49.476;6.086;2024-01-07T08:42:35;6.70;11.70
35445;DHT22;21562;49.476;6.086;2024-01-07T08:45:01;6.70;2.40
35445;DHT22;21562;49.476;6.086;2024-01-07T08:47:29;6.60;9.90
35445;DHT22;21562;49.476;6.086;2024-01-07T08:49:57;6.60;21.70
35445;DHT22;21562;49.476;6.086;2024-01-07T08:52:23;6.40;27.60
35445;DHT22;21562;49.476;6.086;2024-01-07T08:54:48;6.50;25.80
35445;DHT22;21562;49.476;6.086;2024-01-07T08:57:14;6.40;26.50
35445;DHT22;21562;49.476;6.086;2024-01-07T08:59:40;6.40;24.70
35445;DHT22;21562;49.476;6.086;2024-01-07T09:02:05;6.60;27.90
35445;DHT22;21562;49.476;6.086;2024-01-07T09:04:31;6.60;11.40
35445;DHT22;21562;49.476;6.086;2024-01-07T09:06:59;6.70;11.20
35445;DHT22;21562;49.476;6.086;2024-01-07T09:09:25;6.50;1.50
35445;DHT22;21562;49.476;6.086;2024-01-07T09:11:52;6.40;33.50
35445;DHT22;21562;49.476;6.086;2024-01-07T09:14:18;6.10;56.60
35445;DHT22;21562;49.476;6.086;2024-01-07T09:16:43;6.30;72.50
35445;DHT22;21562;49.476;6.086;2024-01-07T09:19:09;6.30;60.70
35445;DHT22;21562;49.476;6.086;2024-01-07T09:21:34;6.00;62.60
35445;DHT22;21562;49.476;6.086;2024-01-07T09:24:00;6.10;87.50
35445;DHT22;21562;49.476;6.086;2024-01-07T09:26:26;6.00;57.70
35445;DHT22;21562;49.476;6.086;2024-01-07T09:28:51;6.10;63.40
35445;DHT22;21562;49.476;6.086;2024-01-07T09:31:17;6.30;69.80
35445;DHT22;21562;49.476;6.086;2024-01-07T09:33:43;6.40;30.10
35445;DHT22;21562;49.476;6.086;2024-01-07T09:36:08;6.50;43.50
35445;DHT22;21562;49.476;6.086;2024-01-07T09:38:34;6.50;37.40
35445;DHT22;21562;49.476;6.086;2024-01-07T09:41:00;6.60;21.30
35445;DHT22;21562;49.476;6.086;2024-01-07T09:43:26;6.80;23.70
35445;DHT22;21562;49.476;6.086;2024-01-07T09:45:53;7.00;1.30
35445;DHT22;21562;49.476;6.086;2024-01-07T09:48:19;6.90;1.00
35445;DHT22;21562;49.476;6.086;2024-01-07T09:50:45;6.80;1.00
35445;DHT22;21562;49.476;6.086;2024-01-07T09:53:15;6.60;26.30
35445;DHT22;21562;49.476;6.086;2024-01-07T09:56:07;6.80;28.10
35445;DHT22;21562;49.476;6.086;2024-01-07T09:58:37;7.00;6.60
35445;DHT22;21562;49.476;6.086;2024-01-07T10:01:03;6.90;1.00
35445;DHT22;21562;49.476;6.086;2024-01-07T10:03:30;6.90;1.00
35445;DHT22;21562;49.476;6.086;2024-01-07T10:05:56;6.40;24.50
35445;DHT22;21562;49.476;6.086;2024-01-07T10:08:22;6.10;95.30
35445;DHT22;21562;49.476;6.086;2024-01-07T10:10:50;6.10;62.50
35445;DHT22;21562;49.476;6.086;2024-01-07T10:13:16;6.30;48.30
35445;DHT22;21562;49.476;6.086;2024-01-07T10:15:41;6.10;84.70
35445;DHT22;21562;49.476;6.086;2024-01-07T10:18:07;6.10;99.90
35445;DHT22;21562;49.476;6.086;2024-01-07T10:20:34;6.20;87.50
35445;DHT22;21562;49.476;6.086;2024-01-07T10:23:01;6.30;72.40
35445;DHT22;21562;49.476;6.086;2024-01-07T10:25:27;6.30;45.50
35445;DHT22;21562;49.476;6.086;2024-01-07T10:27:53;5.90;80.90
35445;DHT22;21562;49.476;6.086;2024-01-07T10:30:19;5.90;99.90
35445;DHT22;21562;49.476;6.086;2024-01-07T10:32:46;6.10;84.90
35445;DHT22;21562;49.476;6.086;2024-01-07T10:35:18;6.20;67.20
35445;DHT22;21562;49.476;6.086;2024-01-07T10:37:45;6.10;81.30
35445;DHT22;21562;49.476;6.086;2024-01-07T10:40:12;6.10;54.40
35445;DHT22;21562;49.476;6.086;2024-01-07T10:42:38;5.90;92.60
35445;DHT22;21562;49.476;6.086;2024-01-07T10:45:04;5.90;77.90
35445;DHT22;21562;49.476;6.086;2024-01-07T10:47:31;5.80;99.90
35445;DHT22;21562;49.476;6.086;2024-01-07T10:49:58;6.00;99.90
35445;DHT22;21562;49.476;6.086;2024-01-07T10:52:26;6.20;97.40
35445;DHT22;21562;49.476;6.086;2024-01-07T10:54:54;6.30;68.30
35445;DHT22;21562;49.476;6.086;2024-01-07T10:59:57;5.90;91.00
35445;DHT22;21562;49.476;6.086;2024-01-07T11:02:24;5.80;99.80
35445;DHT22;21562;49.476;6.086;2024-01-07T11:05:03;5.90;99.90
35445;DHT22;21562;49.476;6.086;2024-01-07T11:08:03;6.00;95.10
35445;DHT22;21562;49.476;6.086;2024-01-07T11:10:42;6.20;66.30
35445;DHT22;21562;49.476;6.086;2024-01-07T11:13:09;6.00;94.30
35445;DHT22;21562;49.476;6.086;2024-01-07T11:18:19;5.80;99.90
35445;DHT22;21562;49.476;6.086;2024-01-07T11:20:46;5.80;99.90
35445;DHT22;21562;49.476;6.086;2024-01-07T11:23:34;5.80;99.90
35445;DHT22;21562;49.476;6.086;2024-01-07T11:26:06;5.70;99.90
35445;DHT22;21562;49.476;6.086;2024-01-07T11:28:51;5.60;99.90
35445;DHT22;21562;49.476;6.086;2024-01-07T11:31:19;5.60;99.90
35445;DHT22;21562;49.476;6.086;2024-01-07T11:33:49;5.70;99.90
35445;DHT22;21562;49.476;6.086;2024-01-07T11:36:16;5.80;99.90
35445;DHT22;21562;49.476;6.086;2024-01-07T11:38:49;5.70;99.90
35445;DHT22;21562;49.476;6.086;2024-01-07T11:41:16;5.60;99.90
35445;DHT22;21562;49.476;6.086;2024-01-07T11:43:56;5.40;99.90
35445;DHT22;21562;49.476;6.086;2024-01-07T11:46:28;5.60;99.90
35445;DHT22;21562;49.476;6.086;2024-01-07T11:48:58;6.00;99.90
35445;DHT22;21562;49.476;6.086;2024-01-07T11:51:31;6.10;64.20
35445;DHT22;21562;49.476;6.086;2024-01-07T11:53:58;6.30;91.00
35445;DHT22;21562;49.476;6.086;2024-01-07T11:56:27;6.30;51.90
35445;DHT22;21562;49.476;6.086;2024-01-07T11:58:53;6.30;74.40
35445;DHT22;21562;49.476;6.086;2024-01-07T12:01:19;6.10;71.10
35445;DHT22;21562;49.476;6.086;2024-01-07T12:03:46;6.20;73.40
35445;DHT22;21562;49.476;6.086;2024-01-07T12:06:12;6.20;66.10
35445;DHT22;21562;49.476;6.086;2024-01-07T12:08:40;6.20;65.70
35445;DHT22;21562;49.476;6.086;2024-01-07T12:11:06;6.10;76.30
35445;DHT22;21562;49.476;6.086;2024-01-07T12:13:33;6.10;78.30
35445;DHT22;21562;49.476;6.086;2024-01-07T12:15:58;5.80;92.90
35445;DHT22;21562;49.476;6.086;2024-01-07T12:18:24;5.90;99.90
35445;DHT22;21562;49.476;6.086;2024-01-07T12:20:58;5.90;99.90
35445;DHT22;21562;49.476;6.086;2024-01-07T12:23:27;5.80;99.90
35445;DHT22;21562;49.476;6.086;2024-01-07T12:25:54;5.90;99.90
35445;DHT22;21562;49.476;6.086;2024-01-07T12:28:21;9.30;99.90
35445;DHT22;21562;49.476;6.086;2024-01-07T12:30:49;10.90;99.90
35445;DHT22;21562;49.476;6.086;2024-01-07T12:33:17;12.20;99.90
35445;DHT22;21562;49.476;6.086;2024-01-07T12:35:47;11.40;1.00
35445;DHT22;21562;49.476;6.086;2024-01-07T12:38:13;10.30;1.00
35445;DHT22;21562;49.476;6.086;2024-01-07T12:40:39;9.40;1.00
35445;DHT22;21562;49.476;6.086;2024-01-07T12:43:05;8.10;1.00
35445;DHT22;21562;49.476;6.086;2024-01-07T12:45:32;7.00;1.00
35445;DHT22;21562;49.476;6.086;2024-01-07T12:47:58;6.60;62.00
35445;DHT22;21562;49.476;6.086;2024-01-07T12:50:28;6.70;53.20
35445;DHT22;21562;49.476;6.086;2024-01-07T12:52:55;6.80;60.60
35445;DHT22;21562;49.476;6.086;2024-01-07T12:55:22;7.10;40.20
35445;DHT22;21562;49.476;6.086;2024-01-07T12:57:48;7.30;4.70
35445;DHT22;21562;49.476;6.086;2024-01-07T13:00:15;6.90;39.30
35445;DHT22;21562;49.476;6.086;2024-01-07T13:02:41;6.70;41.30
35445;DHT22;21562;49.476;6.086;2024-01-07T13:05:07;6.60;59.90
35445;DHT22;21562;49.476;6.086;2024-01-07T13:07:33;6.40;92.20
35445;DHT22;21562;49.476;6.086;2024-01-07T13:09:58;6.10;99.90
35445;DHT22;21562;49.476;6.086;2024-01-07T13:12:25;6.10;99.90
35445;DHT22;21562;49.476;6.086;2024-01-07T13:14:50;6.30;99.90
35445;DHT22;21562;49.476;6.086;2024-01-07T13:17:16;6.10;99.90
35445;DHT22;21562;49.476;6.086;2024-01-07T13:19:42;6.00;99.90
35445;DHT22;21562;49.476;6.086;2024-01-07T13:22:08;5.90;99.90
35445;DHT22;21562;49.476;6.086;2024-01-07T13:24:34;6.10;99.90
35445;DHT22;21562;49.476;6.086;2024-01-07T13:27:00;6.00;99.90
35445;DHT22;21562;49.476;6.086;2024-01-07T13:29:26;6.00;99.90
35445;DHT22;21562;49.476;6.086;2024-01-07T13:31:51;6.00;99.90
35445;DHT22;21562;49.476;6.086;2024-01-07T13:34:17;6.20;99.90
35445;DHT22;21562;49.476;6.086;2024-01-07T13:36:44;6.20;94.40
35445;DHT22;21562;49.476;6.086;2024-01-07T13:39:09;6.20;58.50
35445;DHT22;21562;49.476;6.086;2024-01-07T13:41:36;6.00;95.00
35445;DHT22;21562;49.476;6.086;2024-01-07T13:44:02;5.40;99.90
35445;DHT22;21562;49.476;6.086;2024-01-07T13:46:32;5.50;99.90
35445;DHT22;21562;49.476;6.086;2024-01-07T13:48:59;5.70;99.90
35445;DHT22;21562;49.476;6.086;2024-01-07T13:51:25;5.80;99.90
35445;DHT22;21562;49.476;6.086;2024-01-07T13:53:51;5.70;99.90
35445;DHT22;21562;49.476;6.086;2024-01-07T13:56:17;5.90;99.90
35445;DHT22;21562;49.476;6.086;2024-01-07T13:58:43;6.10;99.90
35445;DHT22;21562;49.476;6.086;2024-01-07T14:01:14;6.10;85.60
35445;DHT22;21562;49.476;6.086;2024-01-07T14:03:41;6.10;94.20
35445;DHT22;21562;49.476;6.086;2024-01-07T14:06:07;6.00;98.20
35445;DHT22;21562;49.476;6.086;2024-01-07T14:08:33;5.80;99.90
35445;DHT22;21562;49.476;6.086;2024-01-07T14:10:59;5.90;92.30
35445;DHT22;21562;49.476;6.086;2024-01-07T14:13:24;5.90;99.00
35445;DHT22;21562;49.476;6.086;2024-01-07T14:15:50;5.80;99.90
35445;DHT22;21562;49.476;6.086;2024-01-07T14:18:16;5.70;99.90
35445;DHT22;21562;49.476;6.086;2024-01-07T14:20:42;5.70;99.90
35445;DHT22;21562;49.476;6.086;2024-01-07T14:23:08;5.60;99.90
35445;DHT22;21562;49.476;6.086;2024-01-07T14:25:35;5.70;99.90
35445;DHT22;21562;49.476;6.086;2024-01-07T14:28:00;5.70;99.90
35445;DHT22;21562;49.476;6.086;2024-01-07T14:30:26;5.80;99.90
35445;DHT22;21562;49.476;6.086;2024-01-07T14:32:53;5.80;89.30
35445;DHT22;21562;49.476;6.086;2024-01-07T14:35:19;5.60;93.70
35445;DHT22;21562;49.476;6.086;2024-01-07T14:37:44;5.50;99.90
35445;DHT22;21562;49.476;6.086;2024-01-07T14:40:10;5.40;99.90
35445;DHT22;21562;49.476;6.086;2024-01-07T14:42:36;5.60;99.90
35445;DHT22;21562;49.476;6.086;2024-01-07T14:45:02;5.60;99.90
35445;DHT22;21562;49.476;6.086;2024-01-07T14:47:29;5.50;99.90
35445;DHT22;21562;49.476;6.086;2024-01-07T14:49:55;5.30;99.90
35445;DHT22;21562;49.476;6.086;2024-01-07T14:52:21;5.20;99.90
35445;DHT22;21562;49.476;6.086;2024-01-07T14:54:46;4.90;99.90
35445;DHT22;21562;49.476;6.086;2024-01-07T14:57:12;5.00;99.90
35445;DHT22;21562;49.476;6.086;2024-01-07T14:59:37;5.20;99.90
35445;DHT22;21562;49.476;6.086;2024-01-07T15:02:03;5.50;99.90
35445;DHT22;21562;49.476;6.086;2024-01-07T15:04:29;5.70;99.90
35445;DHT22;21562;49.476;6.086;2024-01-07T15:06:55;5.90;99.90
35445;DHT22;21562;49.476;6.086;2024-01-07T15:09:22;6.00;98.50
35445;DHT22;21562;49.476;6.086;2024-01-07T15:11:48;6.10;99.90
35445;DHT22;21562;49.476;6.086;2024-01-07T15:14:15;6.00;99.90
35445;DHT22;21562;49.476;6.086;2024-01-07T15:16:40;6.00;99.90
35445;DHT22;21562;49.476;6.086;2024-01-07T15:19:06;6.00;99.90
35445;DHT22;21562;49.476;6.086;2024-01-07T15:21:32;6.10;99.90
35445;DHT22;21562;49.476;6.086;2024-01-07T15:23:58;6.10;97.60
35445;DHT22;21562;49.476;6.086;2024-01-07T15:26:23;6.00;82.00
35445;DHT22;21562;49.476;6.086;2024-01-07T15:28:49;5.80;99.90
35445;DHT22;21562;49.476;6.086;2024-01-07T15:31:15;5.90;99.90
35445;DHT22;21562;49.476;6.086;2024-01-07T15:33:41;5.70;99.90
35445;DHT22;21562;49.476;6.086;2024-01-07T15:36:07;5.30;99.90
35445;DHT22;21562;49.476;6.086;2024-01-07T15:38:33;5.40;99.90
35445;DHT22;21562;49.476;6.086;2024-01-07T15:40:59;5.40;99.90
35445;DHT22;21562;49.476;6.086;2024-01-07T15:43:24;5.40;99.90
35445;DHT22;21562;49.476;6.086;2024-01-07T15:45:50;5.40;99.90
35445;DHT22;21562;49.476;6.086;2024-01-07T15:48:16;5.40;99.90
35445;DHT22;21562;49.476;6.086;2024-01-07T15:50:41;5.30;99.90
35445;DHT22;21562;49.476;6.086;2024-01-07T15:53:07;5.30;99.90
35445;DHT22;21562;49.476;6.086;2024-01-07T15:55:33;5.30;99.90
35445;DHT22;21562;49.476;6.086;2024-01-07T15:57:58;5.30;99.90
35445;DHT22;21562;49.476;6.086;2024-01-07T16:00:24;5.40;99.90
35445;DHT22;21562;49.476;6.086;2024-01-07T16:02:50;5.20;99.90
35445;DHT22;21562;49.476;6.086;2024-01-07T16:05:15;5.20;99.90
35445;DHT22;21562;49.476;6.086;2024-01-07T16:07:42;5.40;99.90
35445;DHT22;21562;49.476;6.086;2024-01-07T16:10:08;5.10;99.90
35445;DHT22;21562;49.476;6.086;2024-01-07T16:12:34;4.90;99.90
35445;DHT22;21562;49.476;6.086;2024-01-07T16:14:59;4.70;99.90
35445;DHT22;21562;49.476;6.086;2024-01-07T16:17:25;4.70;99.90
35445;DHT22;21562;49.476;6.086;2024-01-07T16:19:51;5.00;99.90
35445;DHT22;21562;49.476;6.086;2024-01-07T16:22:17;4.80;99.90
35445;DHT22;21562;49.476;6.086;2024-01-07T16:24:55;4.90;99.90
35445;DHT22;21562;49.476;6.086;2024-01-07T16:27:21;4.90;99.90
35445;DHT22;21562;49.476;6.086;2024-01-07T16:29:46;5.00;99.90
35445;DHT22;21562;49.476;6.086;2024-01-07T16:32:15;4.60;99.90
35445;DHT22;21562;49.476;6.086;2024-01-07T16:34:41;4.50;99.90
35445;DHT22;21562;49.476;6.086;2024-01-07T16:37:06;4.60;99.90
35445;DHT22;21562;49.476;6.086;2024-01-07T16:39:32;4.60;99.90
35445;DHT22;21562;49.476;6.086;2024-01-07T16:41:58;4.80;99.90
35445;DHT22;21562;49.476;6.086;2024-01-07T16:44:24;5.10;99.90
35445;DHT22;21562;49.476;6.086;2024-01-07T16:46:53;5.00;99.90
35445;DHT22;21562;49.476;6.086;2024-01-07T16:49:18;4.80;99.90
35445;DHT22;21562;49.476;6.086;2024-01-07T16:51:44;5.00;99.90
35445;DHT22;21562;49.476;6.086;2024-01-07T16:54:10;5.10;99.90
35445;DHT22;21562;49.476;6.086;2024-01-07T16:56:36;4.90;99.90
35445;DHT22;21562;49.476;6.086;2024-01-07T16:59:01;5.00;90.20
35445;DHT22;21562;49.476;6.086;2024-01-07T17:01:27;5.10;69.30
35445;DHT22;21562;49.476;6.086;2024-01-07T17:03:53;5.20;67.70
35445;DHT22;21562;49.476;6.086;2024-01-07T17:06:25;5.50;62.80
35445;DHT22;21562;49.476;6.086;2024-01-07T17:08:51;5.80;24.40
35445;DHT22;21562;49.476;6.086;2024-01-07T17:11:17;5.90;9.20
35445;DHT22;21562;49.476;6.086;2024-01-07T17:13:42;6.00;1.00
35445;DHT22;21562;49.476;6.086;2024-01-07T17:16:08;5.80;1.00
35445;DHT22;21562;49.476;6.086;2024-01-07T17:18:34;5.70;1.00
35445;DHT22;21562;49.476;6.086;2024-01-07T17:20:59;5.70;13.10
35445;DHT22;21562;49.476;6.086;2024-01-07T17:23:25;5.70;1.00
35445;DHT22;21562;49.476;6.086;2024-01-07T17:25:51;5.60;1.00
35445;DHT22;21562;49.476;6.086;2024-01-07T17:28:17;5.30;9.40
35445;DHT22;21562;49.476;6.086;2024-01-07T17:30:43;5.30;20.30
35445;DHT22;21562;49.476;6.086;2024-01-07T17:33:09;5.30;1.00
35445;DHT22;21562;49.476;6.086;2024-01-07T17:35:37;5.10;14.80
35445;DHT22;21562;49.476;6.086;2024-01-07T17:38:03;5.20;23.50
35445;DHT22;21562;49.476;6.086;2024-01-07T17:40:30;5.40;7.00
35445;DHT22;21562;49.476;6.086;2024-01-07T17:42:56;5.30;1.00
35445;DHT22;21562;49.476;6.086;2024-01-07T17:45:24;5.00;6.80
35445;DHT22;21562;49.476;6.086;2024-01-07T17:47:50;5.10;7.50
35445;DHT22;21562;49.476;6.086;2024-01-07T17:50:16;4.60;24.70
35445;DHT22;21562;49.476;6.086;2024-01-07T17:52:41;4.70;16.00
35445;DHT22;21562;49.476;6.086;2024-01-07T17:55:07;4.60;23.40
35445;DHT22;21562;49.476;6.086;2024-01-07T17:57:34;4.60;26.40
35445;DHT22;21562;49.476;6.086;2024-01-07T18:00:00;4.60;26.70
35445;DHT22;21562;49.476;6.086;2024-01-07T18:02:27;4.60;9.10
35445;DHT22;21562;49.476;6.086;2024-01-07T18:04:53;4.60;14.50
35445;DHT22;21562;49.476;6.086;2024-01-07T18:07:19;4.30;34.50
35445;DHT22;21562;49.476;6.086;2024-01-07T18:09:45;4.40;48.50
35445;DHT22;21562;49.476;6.086;2024-01-07T18:12:13;4.00;81.10
35445;DHT22;21562;49.476;6.086;2024-01-07T18:14:39;4.10;97.10
35445;DHT22;21562;49.476;6.086;2024-01-07T18:17:05;4.50;63.90
35445;DHT22;21562;49.476;6.086;2024-01-07T18:19:30;4.40;27.60
35445;DHT22;21562;49.476;6.086;2024-01-07T18:21:56;4.50;40.10
35445;DHT22;21562;49.476;6.086;2024-01-07T18:24:23;4.40;41.20
35445;DHT22;21562;49.476;6.086;2024-01-07T18:26:49;4.70;37.90
35445;DHT22;21562;49.476;6.086;2024-01-07T18:29:22;4.60;22.00
35445;DHT22;21562;49.476;6.086;2024-01-07T18:31:47;4.40;24.90
35445;DHT22;21562;49.476;6.086;2024-01-07T18:34:13;4.30;27.70
35445;DHT22;21562;49.476;6.086;2024-01-07T18:36:39;4.20;23.20
35445;DHT22;21562;49.476;6.086;2024-01-07T18:39:06;4.00;37.40
35445;DHT22;21562;49.476;6.086;2024-01-07T18:41:34;3.90;48.10
35445;DHT22;21562;49.476;6.086;2024-01-07T18:44:00;4.00;38.60
35445;DHT22;21562;49.476;6.086;2024-01-07T18:46:26;4.10;41.00
35445;DHT22;21562;49.476;6.086;2024-01-07T18:48:52;4.10;37.50